Time;durP1;ratioP1;P1;durP2;ratioP2;P2;SDS_P1;SDS_P2;PMS_P1;PMS_P2;Temp;Humidity;BMP_temperature;BMP_pressure;BME280_temperature;BME280_humidity;BME280_pressure;Samples;Min_cycle;Max_cycle;Signal;HPM_P1;HPM_P2
2023/09/03 00:02:00;;;;;;;21.40;16.50;;;;;;;18.03;66.17;101049.91;109354;1273;21985;-79
2023/09/03 00:04:35;;;;;;;22.10;16.70;;;;;;;18.01;66.23;101050.52;109586;1267;21970;-79
2023/09/03 00:07:08;;;;;;;23.50;21.10;;;;;;;17.96;66.54;101052.59;110117;1267;21964;-78
2023/09/03 00:09:43;;;;;;;23.80;21.30;;;;;;;17.90;66.81;101051.17;108162;1260;3033257;-78
2023/09/03 00:12:17;;;;;;;24.30;21.70;;;;;;;17.87;67.10;101054.70;110708;1261;22307;-78
2023/09/03 00:14:47;;;;;;;21.70;19.50;;;;;;;17.87;67.46;101055.05;110806;1244;21953;-79
2023/09/03 00:17:17;;;;;;;23.30;19.40;;;;;;;17.90;67.71;101048.34;111162;1255;22028;-79
2023/09/03 00:19:54;;;;;;;21.20;19.00;;;;;;;17.94;67.69;101045.65;111102;1255;21952;-79
2023/09/03 00:22:27;;;;;;;22.50;20.20;;;;;;;17.95;67.78;101044.33;110797;1260;21968;-78
2023/09/03 00:24:57;;;;;;;23.00;18.50;;;;;;;17.99;67.80;101042.40;110668;1260;21980;-79
2023/09/03 00:27:29;;;;;;;23.00;20.80;;;;;;;18.00;67.87;101042.01;110351;1265;21988;-78
2023/09/03 00:29:59;;;;;;;21.30;19.20;;;;;;;18.01;67.93;101046.67;110454;1265;21989;-79
2023/09/03 00:32:28;;;;;;;20.70;18.70;;;;;;;18.01;67.98;101046.48;110564;1265;21967;-78
2023/09/03 00:35:01;;;;;;;22.00;19.60;;;;;;;18.01;68.11;101045.62;110142;1265;23695;-79
2023/09/03 00:37:30;;;;;;;22.50;19.80;;;;;;;18.01;68.22;101046.15;110361;1265;23062;-79
2023/09/03 00:40:01;;;;;;;18.80;17.00;;;;;;;18.00;68.28;101043.06;110309;1265;22005;-78
2023/09/03 00:42:33;;;;;;;20.20;18.20;;;;;;;17.98;68.46;101042.98;110486;1265;23046;-78
2023/09/03 00:45:07;;;;;;;22.40;20.10;;;;;;;17.95;68.55;101045.22;110466;1260;23002;-79
2023/09/03 00:47:40;;;;;;;21.90;19.50;;;;;;;17.96;68.90;101044.84;110846;1255;23644;-79
2023/09/03 00:50:14;;;;;;;22.60;20.20;;;;;;;17.96;69.01;101044.83;111129;1255;21961;-78
2023/09/03 00:52:53;;;;;;;19.20;17.20;;;;;;;17.95;69.03;101048.39;111009;1255;22006;-78
2023/09/03 00:55:23;;;;;;;21.60;19.50;;;;;;;17.93;69.24;101046.39;110964;1254;23682;-79
2023/09/03 00:57:55;;;;;;;20.90;18.80;;;;;;;17.94;69.37;101041.08;111136;1254;22952;-78
2023/09/03 01:00:26;;;;;;;20.30;18.20;;;;;;;17.93;69.52;101040.23;111112;1255;21986;-78
2023/09/03 01:03:04;;;;;;;21.80;19.40;;;;;;;17.92;69.55;101046.12;111186;1255;21913;-78
2023/09/03 01:05:39;;;;;;;20.20;18.10;;;;;;;17.91;69.62;101047.05;111196;1254;22038;-79
2023/09/03 01:08:11;;;;;;;21.50;19.50;;;;;;;17.84;69.79;101038.98;111151;1254;23681;-77
2023/09/03 01:11:11;;;;;;;19.50;17.60;;;;;;;17.91;69.80;101048.83;110936;1254;21978;-79
2023/09/03 01:14:00;;;;;;;23.50;21.20;;;;;;;17.87;70.10;101048.00;111146;1254;23010;-79
2023/09/03 01:17:12;;;;;;;22.90;20.70;;;;;;;17.86;70.32;101048.02;111368;1254;21954;-79
2023/09/03 01:20:08;;;;;;;21.10;19.00;;;;;;;17.84;70.45;101046.20;110845;1259;21964;-79
2023/09/03 01:22:54;;;;;;;22.00;19.80;;;;;;;17.83;70.43;101040.13;110793;1254;23606;-78
2023/09/03 01:26:02;;;;;;;22.30;20.00;;;;;;;17.80;70.58;101039.23;110859;1259;21937;-79
2023/09/03 01:28:38;;;;;;;23.30;20.40;;;;;;;17.76;70.77;101039.43;110844;1254;22156;-78
2023/09/03 01:31:15;;;;;;;21.60;19.60;;;;;;;17.76;70.75;101041.52;110907;1259;21957;-79
2023/09/03 01:33:48;;;;;;;24.00;21.60;;;;;;;17.75;70.70;101036.98;110440;1264;23717;-79
2023/09/03 01:36:20;;;;;;;23.50;21.10;;;;;;;17.75;70.83;101033.49;110305;1264;22427;-80
2023/09/03 01:38:53;;;;;;;22.00;19.90;;;;;;;17.75;71.06;101033.70;109781;1267;22832;-79
2023/09/03 01:41:26;;;;;;;22.50;20.30;;;;;;;17.74;71.11;101031.07;109279;1273;23132;-78
2023/09/03 01:43:57;;;;;;;;;;;;;;;17.74;71.20;101031.94;109393;1273;24332;-78
2023/09/03 01:46:48;;;;;;;;;;;;;;;17.63;71.40;101027.84;109180;1272;21960;-80
2023/09/03 01:49:39;;;;;;;22.50;20.30;;;;;;;17.52;71.67;101023.70;109009;1276;22000;-79
2023/09/03 01:52:37;;;;;;;22.60;20.50;;;;;;;17.52;71.87;101023.33;109006;1276;22003;-79
2023/09/03 01:55:11;;;;;;;23.00;20.70;;;;;;;17.54;71.73;101024.66;108952;1276;23729;-78
2023/09/03 01:57:47;;;;;;;21.40;19.20;;;;;;;17.55;71.60;101024.56;109335;1270;22973;-78
2023/09/03 02:00:21;;;;;;;21.00;19.00;;;;;;;17.56;71.66;101018.91;109710;1259;23727;-79
2023/09/03 02:02:53;;;;;;;21.70;19.60;;;;;;;17.56;71.58;101017.66;109735;1268;21990;-78
2023/09/03 02:05:23;;;;;;;22.30;20.10;;;;;;;17.55;71.59;101013.84;109824;1264;23713;-79
2023/09/03 02:07:52;;;;;;;22.40;20.20;;;;;;;17.55;71.75;101012.80;110130;1265;23740;-79
2023/09/03 02:10:23;;;;;;;22.90;20.50;;;;;;;17.53;71.75;101008.15;110029;1265;24383;-79
2023/09/03 02:12:53;;;;;;;22.70;20.10;;;;;;;17.51;71.96;101007.91;110146;1265;23028;-78
2023/09/03 02:15:23;;;;;;;21.70;19.80;;;;;;;17.50;72.04;101010.08;110698;1255;22384;-79
2023/09/03 02:17:55;;;;;;;23.20;21.10;;;;;;;17.49;72.17;101009.95;111048;1255;22931;-79
2023/09/03 02:20:29;;;;;;;21.60;19.50;;;;;;;17.48;72.19;101010.70;110898;1255;21976;-78
2023/09/03 02:23:00;;;;;;;22.00;19.50;;;;;;;17.49;72.47;101011.21;110262;1261;21954;-80
2023/09/03 02:25:34;;;;;;;22.20;20.10;;;;;;;17.47;72.54;101014.52;109967;1265;23693;-79
2023/09/03 02:28:07;;;;;;;21.20;19.30;;;;;;;17.45;72.52;101012.65;109435;1271;22528;-78
2023/09/03 02:30:38;;;;;;;23.00;20.90;;;;;;;17.44;72.61;101011.88;109197;1272;21979;-78
2023/09/03 02:33:11;;;;;;;21.40;19.50;;;;;;;17.42;72.78;101009.85;109354;1272;22949;-78
2023/09/03 02:35:44;;;;;;;24.00;21.70;;;;;;;17.39;72.84;101010.35;109179;1263;21978;-78
2023/09/03 02:38:19;;;;;;;23.90;21.70;;;;;;;17.36;72.86;101009.45;109420;1272;23731;-78
2023/09/03 02:40:50;;;;;;;22.20;20.00;;;;;;;17.33;72.99;101013.85;109121;1262;21988;-79
2023/09/03 02:43:29;;;;;;;22.20;20.20;;;;;;;17.31;73.21;101017.67;109949;1267;22034;-78
2023/09/03 02:46:01;;;;;;;22.80;20.70;;;;;;;17.28;73.19;101016.95;110386;1261;24289;-79
2023/09/03 02:48:35;;;;;;;22.40;20.30;;;;;;;17.25;73.28;101015.54;110144;1267;22349;-78
2023/09/03 02:51:06;;;;;;;22.90;20.80;;;;;;;17.22;73.31;101019.20;109612;1256;23058;-78
2023/09/03 02:53:37;;;;;;;;;;;;;;;17.19;73.35;101023.77;109957;1267;22102;-78
2023/09/03 02:56:10;;;;;;;23.80;21.80;;;;;;;17.07;73.82;101031.09;109867;1266;21996;-78
2023/09/03 02:58:49;;;;;;;25.60;23.20;;;;;;;17.06;73.81;101030.61;109712;1265;21960;-79
2023/09/03 03:01:22;;;;;;;25.80;23.50;;;;;;;17.06;73.85;101021.52;110417;1265;22031;-78
2023/09/03 03:03:52;;;;;;;24.90;22.50;;;;;;;17.06;74.04;101011.11;110262;1265;22737;-78
2023/09/03 03:06:23;;;;;;;23.40;21.00;;;;;;;17.08;74.12;101008.38;110255;1265;23060;-79
2023/09/03 03:08:56;;;;;;;24.30;21.90;;;;;;;17.05;74.03;101012.08;110332;1265;22007;-79
2023/09/03 03:11:26;;;;;;;22.70;20.50;;;;;;;17.03;73.99;101014.45;110382;1265;23653;-78
2023/09/03 03:14:01;;;;;;;25.10;22.60;;;;;;;17.01;73.95;101020.02;110083;1261;21960;-76
2023/09/03 03:16:34;;;;;;;25.30;22.70;;;;;;;16.98;74.05;101022.27;110631;1256;23017;-79
2023/09/03 03:19:09;;;;;;;25.30;23.00;;;;;;;16.98;74.18;101020.89;111120;1256;22108;-79
2023/09/03 03:21:45;;;;;;;23.50;21.40;;;;;;;16.97;74.26;101018.27;110788;1256;24387;-78
2023/09/03 03:24:17;;;;;;;23.80;21.40;;;;;;;16.96;74.16;101017.12;110979;1256;21979;-76
2023/09/03 03:26:48;;;;;;;24.20;21.60;;;;;;;16.94;74.21;101014.41;110887;1256;23017;-77
2023/09/03 03:29:21;;;;;;;24.20;21.90;;;;;;;16.91;74.23;101015.27;110785;1259;21963;-77
2023/09/03 03:31:58;;;;;;;24.00;21.70;;;;;;;16.89;74.20;101018.52;110444;1260;23783;-77
2023/09/03 03:34:29;;;;;;;24.90;22.70;;;;;;;16.88;74.23;101017.00;110526;1260;21967;-76
2023/09/03 03:37:00;;;;;;;24.40;22.00;;;;;;;16.87;74.16;101017.08;110582;1259;22002;-76
2023/09/03 03:39:30;;;;;;;23.90;21.70;;;;;;;16.85;74.10;101015.76;110786;1260;24370;-76
2023/09/03 03:42:04;;;;;;;26.70;24.30;;;;;;;16.84;74.12;101016.86;110850;1259;21963;-76
2023/09/03 03:44:37;;;;;;;23.90;21.80;;;;;;;16.81;74.14;101013.66;110748;1260;22001;-77
2023/09/03 03:47:08;;;;;;;25.40;22.90;;;;;;;16.80;74.14;101014.08;110228;1260;22167;-77
2023/09/03 03:49:38;;;;;;;26.20;23.50;;;;;;;16.80;74.14;101014.44;110646;1255;21952;-77
2023/09/03 03:52:12;;;;;;;24.80;22.40;;;;;;;16.78;74.27;101014.48;110671;1252;21957;-75
2023/09/03 03:54:44;;;;;;;24.80;22.50;;;;;;;16.77;74.22;101015.95;110628;1260;22720;-76
2023/09/03 03:57:14;;;;;;;23.90;21.70;;;;;;;16.76;74.22;101023.91;110672;1259;23604;-76
2023/09/03 03:59:52;;;;;;;24.40;22.20;;;;;;;16.75;74.21;101029.62;110695;1259;22011;-74
2023/09/03 04:02:28;;;;;;;24.90;22.50;;;;;;;16.74;74.33;101028.41;111008;1259;22654;-74
2023/09/03 04:05:09;;;;;;;24.30;22.00;;;;;;;16.74;74.29;101032.98;110751;1259;21963;-76
2023/09/03 04:07:47;;;;;;;23.50;21.20;;;;;;;16.75;74.43;101030.32;110919;1259;22939;-76
2023/09/03 04:10:19;;;;;;;24.80;22.70;;;;;;;16.76;74.21;101029.55;110758;1260;21981;-76
2023/09/03 04:12:55;;;;;;;23.10;21.10;;;;;;;16.78;74.26;101030.52;111026;1255;22694;-77
2023/09/03 04:15:28;;;;;;;24.30;21.80;;;;;;;16.79;74.28;101031.35;111214;1255;24603;-75
2023/09/03 04:18:00;;;;;;;23.70;21.50;;;;;;;16.81;74.19;101030.71;111180;1255;21964;-76
2023/09/03 04:20:31;;;;;;;24.20;22.10;;;;;;;16.83;74.01;101032.71;110743;1260;21959;-75
2023/09/03 04:23:04;;;;;;;23.10;21.10;;;;;;;16.84;73.91;101032.52;110686;1260;24299;-76
2023/09/03 04:25:41;;;;;;;23.40;21.40;;;;;;;16.86;73.95;101037.14;110536;1260;23731;-76
2023/09/03 04:28:24;;;;;;;24.00;21.80;;;;;;;16.88;74.01;101039.50;110762;1259;21960;-79
2023/09/03 04:30:59;;;;;;;22.00;20.10;;;;;;;16.89;73.85;101037.86;110672;1260;22830;-77
2023/09/03 04:33:40;;;;;;;24.90;22.60;;;;;;;16.90;73.75;101042.95;110998;1259;23612;-77
2023/09/03 04:36:36;;;;;;;;;;;;;;;16.89;73.80;101048.73;110351;1262;23747;-78
2023/09/03 04:39:27;;;;;;;23.80;21.60;;;;;;;16.81;73.99;101052.17;110588;1259;21968;-77
2023/09/03 04:42:22;;;;;;;23.00;20.80;;;;;;;16.83;73.94;101055.78;110775;1259;21968;-77
2023/09/03 04:45:08;;;;;;;23.10;21.10;;;;;;;16.86;73.87;101054.02;110480;1263;22487;-78
2023/09/03 04:47:59;;;;;;;23.30;21.20;;;;;;;16.91;73.79;101058.52;110070;1267;21998;-79
2023/09/03 04:50:46;;;;;;;22.50;20.50;;;;;;;16.93;73.41;101060.14;109745;1267;22004;-79
2023/09/03 04:53:49;;;;;;;21.20;19.50;;;;;;;16.95;73.57;101053.91;109900;1263;21966;-78
2023/09/03 04:56:23;;;;;;;21.10;19.30;;;;;;;16.97;73.39;101049.90;110371;1263;21970;-80
2023/09/03 04:58:58;;;;;;;20.80;19.00;;;;;;;16.99;73.24;101051.39;110223;1263;22056;-77
2023/09/03 05:01:32;;;;;;;22.10;20.10;;;;;;;17.04;73.25;101053.77;110296;1263;22702;-78
2023/09/03 05:04:06;;;;;;;21.10;19.00;;;;;;;17.08;73.19;101056.05;110768;1258;22014;-76
2023/09/03 05:06:52;;;;;;;23.00;20.60;;;;;;;17.10;73.11;101055.18;110769;1260;21963;-77
2023/09/03 05:09:25;;;;;;;22.60;20.40;;;;;;;17.13;72.93;101060.67;110783;1259;23021;-77
2023/09/03 05:11:58;;;;;;;21.20;19.20;;;;;;;17.16;72.79;101066.16;110723;1260;21991;-78
2023/09/03 05:14:40;;;;;;;21.40;19.50;;;;;;;17.16;72.76;101068.93;110778;1260;23716;-77
2023/09/03 05:17:15;;;;;;;19.10;17.60;;;;;;;17.19;72.61;101072.50;110781;1260;23596;-78
2023/09/03 05:20:05;;;;;;;21.40;19.30;;;;;;;17.22;72.52;101072.50;110804;1259;21969;-78
2023/09/03 05:22:49;;;;;;;21.10;19.00;;;;;;;17.24;72.46;101070.83;110941;1259;22061;-78
2023/09/03 05:25:28;;;;;;;21.10;18.60;;;;;;;17.28;72.32;101079.23;110006;1265;23586;-78
2023/09/03 05:28:04;;;;;;;20.60;18.80;;;;;;;17.31;72.13;101080.96;110007;1265;22005;-77
2023/09/03 05:30:41;;;;;;;19.70;17.90;;;;;;;17.34;72.06;101077.99;110076;1248;21971;-79
2023/09/03 05:33:41;;;;;;;19.70;18.00;;;;;;;17.40;72.16;101080.67;110751;1260;22008;-79
2023/09/03 05:36:39;;;;;;;19.60;17.70;;;;;;;17.48;72.10;101077.58;110023;1258;21954;-79
2023/09/03 05:39:12;;;;;;;20.80;19.00;;;;;;;17.60;72.06;101073.96;109814;1267;22363;-78
2023/09/03 05:41:49;;;;;;;19.80;17.70;;;;;;;17.71;71.82;101077.05;109159;1273;23726;-76
2023/09/03 05:44:32;;;;;;;19.20;17.40;;;;;;;17.83;71.51;101080.27;109545;1269;21973;-76
2023/09/03 05:47:29;;;;;;;20.60;18.60;;;;;;;17.92;71.12;101086.40;109511;1268;22112;-78
2023/09/03 05:50:17;;;;;;;20.50;18.50;;;;;;;18.03;70.72;101088.98;109806;1268;22098;-77
2023/09/03 05:53:05;;;;;;;;;;;;;;;;;;;;;
2023/09/03 05:55:47;;;;;;;17.20;15.50;;;;;;;18.21;70.25;101093.61;109518;1271;23748;-77
2023/09/03 05:58:23;;;;;;;18.40;16.30;;;;;;;18.32;69.90;101092.40;109285;1271;21990;-80
2023/09/03 06:01:10;;;;;;;17.20;15.50;;;;;;;18.42;69.49;101092.52;109735;1268;21992;-79
2023/09/03 06:03:41;;;;;;;15.40;14.00;;;;;;;18.50;69.01;101093.82;110121;1268;23685;-78
2023/09/03 06:06:30;;;;;;;18.70;14.40;;;;;;;18.60;68.80;101092.34;109891;1268;23053;-79
2023/09/03 06:09:09;;;;;;;18.60;13.40;;;;;;;18.72;68.49;101093.23;109602;1271;22987;-77
2023/09/03 06:11:53;;;;;;;14.60;13.20;;;;;;;18.83;68.05;101098.05;109859;1263;22756;-78
2023/09/03 06:14:38;;;;;;;14.00;12.60;;;;;;;18.92;67.69;101098.20;110701;1259;22482;-78
2023/09/03 06:17:24;;;;;;;14.40;13.00;;;;;;;19.01;67.45;101100.50;110411;1262;23685;-79
2023/09/03 06:20:04;;;;;;;12.00;10.90;;;;;;;19.14;67.18;101101.13;110584;1262;22494;-79
2023/09/03 06:22:41;;;;;;;12.00;10.70;;;;;;;19.29;66.97;101104.39;110578;1262;21986;-77
2023/09/03 06:25:17;;;;;;;11.90;10.70;;;;;;;19.48;66.52;101110.27;110410;1262;21997;-78
2023/09/03 06:28:03;;;;;;;12.80;10.90;;;;;;;19.64;65.79;101110.70;110593;1258;22948;-78
2023/09/03 06:30:36;;;;;;;11.80;10.40;;;;;;;19.75;65.01;101109.62;110432;1264;24370;-77
2023/09/03 06:33:24;;;;;;;15.70;11.00;;;;;;;19.87;64.60;101113.46;110212;1264;22983;-81
2023/09/03 06:35:56;;;;;;;11.90;10.60;;;;;;;19.94;63.76;101114.61;110113;1266;22023;-77
2023/09/03 06:38:35;;;;;;;13.00;10.30;;;;;;;19.94;63.17;101121.70;110138;1266;21998;-78
2023/09/03 06:41:12;;;;;;;12.50;9.40;;;;;;;19.92;62.80;101127.30;109804;1266;21967;-77
2023/09/03 06:43:50;;;;;;;11.10;9.90;;;;;;;19.90;62.73;101132.73;109690;1268;21980;-78
2023/09/03 06:46:22;;;;;;;10.80;9.40;;;;;;;19.91;62.83;101134.59;109381;1268;22590;-78
2023/09/03 06:48:54;;;;;;;10.30;9.30;;;;;;;19.96;62.68;101137.10;109928;1263;22878;-78
2023/09/03 06:51:23;;;;;;;11.80;9.50;;;;;;;19.98;62.43;101139.80;109793;1268;21971;-78
2023/09/03 06:53:52;;;;;;;11.50;9.70;;;;;;;20.01;62.54;101140.50;110247;1263;24879;-78
2023/09/03 06:56:22;;;;;;;12.50;9.40;;;;;;;20.05;62.41;101146.21;109764;1270;21972;-77
2023/09/03 06:58:57;;;;;;;13.40;10.80;;;;;;;20.08;62.17;101141.62;109891;1268;21976;-77
2023/09/03 07:01:33;;;;;;;12.10;10.00;;;;;;;20.11;62.11;101134.17;109805;1265;21976;-78
2023/09/03 07:04:09;;;;;;;9.50;8.50;;;;;;;20.14;61.89;101128.52;110140;1265;22066;-77
2023/09/03 07:06:46;;;;;;;12.50;9.60;;;;;;;20.20;62.07;101131.45;110199;1265;22843;-78
2023/09/03 07:09:19;;;;;;;12.60;9.70;;;;;;;20.34;62.01;101135.11;110141;1265;23528;-78
2023/09/03 07:11:52;;;;;;;9.40;8.40;;;;;;;20.53;62.08;101138.63;110089;1265;21977;-77
2023/09/03 07:14:26;;;;;;;10.70;8.60;;;;;;;20.83;61.83;101147.83;110297;1259;21950;-77
2023/09/03 07:16:59;;;;;;;8.30;7.50;;;;;;;21.06;60.85;101146.09;111068;1254;21970;-78
2023/09/03 07:19:30;;;;;;;12.30;9.20;;;;;;;21.25;60.50;101149.70;111182;1254;21954;-76
2023/09/03 07:22:02;;;;;;;9.10;8.00;;;;;;;21.46;59.72;101149.45;111159;1254;23654;-78
2023/09/03 07:24:52;;;;;;;10.00;8.90;;;;;;;21.60;58.81;101151.14;111361;1254;21938;-77
2023/09/03 07:27:30;;;;;;;9.30;7.80;;;;;;;21.85;58.84;101153.80;111045;1253;22655;-77
2023/09/03 07:30:02;;;;;;;9.00;7.70;;;;;;;22.20;58.58;101156.38;111108;1244;23039;-78
2023/09/03 07:32:39;;;;;;;15.60;8.60;;;;;;;22.51;57.47;101159.92;110704;1260;22007;-76
2023/09/03 07:35:13;;;;;;;10.20;7.70;;;;;;;22.69;56.36;101157.70;110679;1260;21961;-78
2023/09/03 07:37:46;;;;;;;9.40;7.60;;;;;;;22.95;56.17;101162.11;110166;1264;22109;-77
2023/09/03 07:40:17;;;;;;;10.50;8.10;;;;;;;23.13;54.54;101164.08;110182;1264;22538;-78
2023/09/03 07:42:56;;;;;;;11.10;7.90;;;;;;;23.16;53.63;101165.97;110170;1264;23706;-78
2023/09/03 07:45:29;;;;;;;15.60;10.60;;;;;;;23.35;53.79;101173.73;110366;1264;24116;-78
2023/09/03 07:48:02;;;;;;;9.10;7.10;;;;;;;23.63;53.89;101169.77;110355;1255;23036;-78
2023/09/03 07:50:38;;;;;;;9.60;6.60;;;;;;;24.01;53.61;101167.75;110386;1265;21963;-77
2023/09/03 07:53:10;;;;;;;9.10;7.20;;;;;;;24.44;52.63;101164.63;109939;1268;22056;-79
2023/09/03 07:55:40;;;;;;;8.30;6.60;;;;;;;24.86;51.12;101167.98;109964;1267;22017;-77
2023/09/03 07:58:16;;;;;;;8.80;7.10;;;;;;;25.15;49.20;101167.65;110591;1260;21968;-79
2023/09/03 08:00:49;;;;;;;8.90;7.30;;;;;;;25.34;48.48;101173.21;110585;1262;23752;-80
2023/09/03 08:03:43;;;;;;;7.40;6.70;;;;;;;25.66;48.97;101179.80;110591;1262;23629;-79
2023/09/03 08:06:24;;;;;;;12.00;7.60;;;;;;;26.04;47.93;101179.66;110243;1262;23599;-80
2023/09/03 08:09:12;;;;;;;9.90;7.90;;;;;;;26.32;47.32;101183.08;110026;1269;21993;-81
2023/09/03 08:11:45;;;;;;;8.10;7.40;;;;;;;26.52;46.29;101185.10;109974;1264;23735;-79
2023/09/03 08:14:22;;;;;;;9.40;6.40;;;;;;;26.60;45.65;101187.51;109496;1271;22092;-79
2023/09/03 08:17:04;;;;;;;9.30;6.70;;;;;;;26.81;45.98;101187.98;109538;1271;21977;-81
2023/09/03 08:19:48;;;;;;;6.40;5.70;;;;;;;27.05;44.91;101189.27;109637;1270;23497;-79
2023/09/03 08:22:33;;;;;;;5.80;5.10;;;;;;;27.28;44.61;101192.33;109556;1271;23702;-79
2023/09/03 08:25:27;;;;;;;8.10;5.60;;;;;;;27.68;43.68;101192.84;109849;1268;22848;-80
2023/09/03 08:28:18;;;;;;;6.30;5.00;;;;;;;27.94;42.69;101188.27;110648;1261;22188;-80
2023/09/03 08:31:10;;;;;;;9.40;6.10;;;;;;;28.14;41.92;101187.92;110549;1265;21977;-80
2023/09/03 08:33:57;;;;;;;6.80;5.90;;;;;;;28.25;41.19;101189.23;111156;1259;21986;-80
2023/09/03 08:36:55;;;;;;;12.50;6.10;;;;;;;28.17;40.86;101195.36;110452;1264;22806;-86
2023/09/03 08:39:44;;;;;;;11.80;6.50;;;;;;;28.11;40.97;101194.71;110596;1263;23087;-79
2023/09/03 08:43:02;;;;;;;6.40;4.90;;;;;;;28.09;41.37;101192.22;110647;1265;22000;-80
2023/09/03 08:46:04;;;;;;;6.30;5.10;;;;;;;28.14;40.54;101189.21;110480;1264;22969;-79
2023/09/03 08:48:44;;;;;;;7.20;5.20;;;;;;;28.01;40.12;101191.27;110461;1259;21959;-78
2023/09/03 08:51:34;;;;;;;6.60;4.90;;;;;;;27.78;39.99;101193.46;110498;1263;21965;-78
2023/09/03 08:54:43;;;;;;;8.50;4.60;;;;;;;27.51;40.96;101192.50;110582;1257;21964;-77
2023/09/03 08:57:27;;;;;;;7.70;4.70;;;;;;;27.63;41.46;101188.86;110704;1259;23110;-79
2023/09/03 09:00:08;;;;;;;12.00;5.90;;;;;;;27.64;40.47;101187.98;110197;1260;21968;-78
2023/09/03 09:02:42;;;;;;;4.40;3.40;;;;;;;27.65;40.49;101191.10;110136;1265;21970;-78
2023/09/03 09:05:18;;;;;;;4.70;3.60;;;;;;;27.81;40.24;101186.53;109410;1270;22477;-79
2023/09/03 09:08:03;;;;;;;5.90;4.30;;;;;;;28.07;40.47;101188.23;109412;1270;22044;-79
2023/09/03 09:10:48;;;;;;;5.20;2.50;;;;;;;28.31;38.28;101184.45;109777;1272;25154;-79
2023/09/03 09:13:33;;;;;;;;;;;;;;;;;;;;;
2023/09/03 09:16:09;;;;;;;5.40;3.10;;;;;;;28.21;37.15;101195.87;109464;1272;22032;-79
2023/09/03 09:18:41;;;;;;;4.70;3.10;;;;;;;28.14;37.03;101191.67;109904;1266;23744;-81
2023/09/03 09:21:12;;;;;;;3.60;3.20;;;;;;;28.05;36.77;101184.86;110083;1266;23058;-80
2023/09/03 09:23:42;;;;;;;4.90;3.80;;;;;;;27.88;37.11;101187.25;110448;1260;22047;-83
2023/09/03 09:26:30;;;;;;;5.10;3.90;;;;;;;27.73;37.72;101188.88;110807;1260;21960;-77
2023/09/03 09:29:06;;;;;;;6.20;3.80;;;;;;;27.71;38.27;101191.27;110522;1260;22963;-79
2023/09/03 09:31:46;;;;;;;8.00;3.70;;;;;;;27.66;38.44;101197.30;110808;1254;22908;-80
2023/09/03 09:34:17;;;;;;;8.70;3.60;;;;;;;27.78;39.00;101190.78;110931;1260;21970;-77
2023/09/03 09:36:54;;;;;;;4.80;3.90;;;;;;;27.89;38.30;101188.65;110670;1260;21966;-80
2023/09/03 09:39:28;;;;;;;5.10;3.10;;;;;;;27.85;37.62;101186.48;110704;1260;21960;-78
2023/09/03 09:42:19;;;;;;;6.00;3.30;;;;;;;27.74;37.50;101185.81;110665;1260;22108;-77
2023/09/03 09:44:59;;;;;;;10.80;9.60;;;;;;;27.74;38.29;101186.34;110239;1264;22723;-82
2023/09/03 09:47:43;;;;;;;7.40;3.80;;;;;;;28.15;38.27;101186.60;110556;1259;21949;-80
2023/09/03 09:50:13;;;;;;;6.60;2.40;;;;;;;28.63;37.21;101190.61;110683;1259;23050;-80
2023/09/03 09:52:48;;;;;;;2.70;2.20;;;;;;;28.99;35.26;101190.68;110787;1259;21958;-78
2023/09/03 09:55:24;;;;;;;3.00;2.40;;;;;;;29.27;34.04;101181.37;110738;1259;22958;-79
2023/09/03 09:58:00;;;;;;;11.00;2.90;;;;;;;29.21;33.07;101184.32;110988;1256;21960;-79
2023/09/03 10:00:53;;;;;;;3.80;2.60;;;;;;;28.77;32.89;101181.96;110161;1264;23629;-78
2023/09/03 10:03:39;;;;;;;2.60;2.10;;;;;;;28.20;33.55;101178.47;110632;1260;22422;-79
2023/09/03 10:06:28;;;;;;;4.30;2.80;;;;;;;27.73;34.27;101181.04;110925;1260;21970;-78
2023/09/03 10:09:03;;;;;;;3.50;1.90;;;;;;;27.38;34.76;101183.48;110524;1265;21966;-82
2023/09/03 10:11:36;;;;;;;8.00;2.50;;;;;;;27.06;34.67;101179.02;110292;1265;22393;-80
2023/09/03 10:14:14;;;;;;;2.90;2.00;;;;;;;26.95;35.32;101183.63;110001;1268;24105;-79
2023/09/03 10:16:52;;;;;;;4.20;2.10;;;;;;;27.08;35.82;101183.48;109770;1268;22006;-82
2023/09/03 10:19:31;;;;;;;5.40;2.00;;;;;;;27.37;34.78;101179.85;110472;1263;22721;-79
2023/09/03 10:22:23;;;;;;;3.30;1.80;;;;;;;27.20;33.02;101175.77;110172;1263;22166;-81
2023/09/03 10:25:23;;;;;;;3.60;2.00;;;;;;;26.75;32.99;101174.66;110633;1260;22056;-79
2023/09/03 10:28:02;;;;;;;4.80;2.10;;;;;;;26.33;33.69;101181.49;110611;1259;21967;-80
2023/09/03 10:30:39;;;;;;;;;;;;;;;26.07;34.60;101189.73;110279;1264;23775;-81
2023/09/03 10:33:12;;;;;;;5.80;2.20;;;;;;;25.70;35.07;101192.48;110607;1264;21996;-80
2023/09/03 10:36:18;;;;;;;6.10;2.40;;;;;;;25.48;36.34;101189.57;110471;1264;23049;-81
2023/09/03 10:38:58;;;;;;;4.00;1.80;;;;;;;25.91;37.87;101182.65;110184;1263;23712;-79
2023/09/03 10:41:35;;;;;;;3.70;2.30;;;;;;;26.53;37.07;101186.65;110729;1263;21993;-79
2023/09/03 10:44:30;;;;;;;4.80;2.60;;;;;;;27.03;35.06;101184.02;110600;1263;21967;-82
2023/09/03 10:47:17;;;;;;;3.60;2.00;;;;;;;27.19;33.58;101190.11;110577;1263;22069;-79
2023/09/03 10:50:04;;;;;;;2.10;1.70;;;;;;;27.07;32.76;101196.05;110021;1268;23173;-78
2023/09/03 10:52:40;;;;;;;3.10;1.80;;;;;;;27.03;33.51;101200.73;110325;1268;22081;-78
2023/09/03 10:55:20;;;;;;;5.60;2.20;;;;;;;27.10;33.09;101195.84;110039;1263;24314;-80
2023/09/03 10:58:10;;;;;;;4.70;2.20;;;;;;;26.96;32.45;101197.27;110152;1263;23076;-80
2023/09/03 11:01:24;;;;;;;3.60;2.10;;;;;;;26.53;32.66;101203.73;110607;1263;21970;-78
2023/09/03 11:03:56;;;;;;;3.50;1.90;;;;;;;26.17;33.80;101204.70;110745;1258;21956;-78
2023/09/03 11:06:38;;;;;;;2.90;1.80;;;;;;;25.98;33.89;101208.88;110692;1258;21936;-78
2023/09/03 11:09:10;;;;;;;4.70;2.10;;;;;;;25.75;34.22;101207.73;111284;1254;22020;-78
2023/09/03 11:11:44;;;;;;;2.90;1.60;;;;;;;25.66;34.83;101209.77;111272;1254;22096;-80
2023/09/03 11:14:15;;;;;;;2.70;2.00;;;;;;;25.65;34.74;101205.25;111044;1254;22240;-79
2023/09/03 11:16:58;;;;;;;2.40;1.70;;;;;;;25.56;34.45;101205.86;111322;1254;21989;-79
2023/09/03 11:19:42;;;;;;;4.50;1.90;;;;;;;25.50;35.32;101200.64;110670;1260;21985;-79
2023/09/03 11:22:15;;;;;;;3.70;2.30;;;;;;;25.56;35.60;101201.90;110899;1260;21956;-79
2023/09/03 11:24:48;;;;;;;3.20;2.30;;;;;;;25.65;35.49;101204.66;110355;1264;23025;-78
2023/09/03 11:27:18;;;;;;;3.80;2.30;;;;;;;25.72;35.07;101201.77;110401;1264;21992;-79
2023/09/03 11:30:21;;;;;;;4.60;2.50;;;;;;;25.71;34.39;101203.09;110750;1264;23762;-85
2023/09/03 11:32:53;;;;;;;7.00;2.50;;;;;;;25.53;34.02;101199.48;109708;1272;23035;-79
2023/09/03 11:35:24;;;;;;;3.70;2.00;;;;;;;25.34;34.28;101202.95;109285;1276;21984;-79
2023/09/03 11:37:56;;;;;;;4.40;1.80;;;;;;;25.14;34.64;101199.67;109401;1267;22214;-79
2023/09/03 11:40:26;;;;;;;4.00;2.00;;;;;;;25.04;35.37;101203.34;109453;1272;21978;-78
2023/09/03 11:42:59;;;;;;;4.40;3.20;;;;;;;25.01;35.45;101201.30;109904;1264;22126;-79
2023/09/03 11:45:35;;;;;;;3.80;2.80;;;;;;;24.97;35.66;101193.44;110215;1267;21984;-81
2023/09/03 11:48:07;;;;;;;3.40;1.90;;;;;;;24.95;36.06;101193.58;110171;1267;21983;-78
2023/09/03 11:50:50;;;;;;;3.30;2.20;;;;;;;24.96;36.49;101188.00;110299;1260;22412;-79
2023/09/03 11:53:25;;;;;;;6.80;2.20;;;;;;;24.94;36.35;101183.36;110927;1255;21953;-79
2023/09/03 11:56:00;;;;;;;3.20;1.80;;;;;;;24.95;35.91;101176.87;111105;1254;22067;-79
2023/09/03 11:58:31;;;;;;;3.60;2.00;;;;;;;24.90;35.42;101179.05;110964;1254;22147;-78
2023/09/03 12:01:02;;;;;;;4.50;2.40;;;;;;;24.84;35.04;101176.05;111186;1254;21966;-79
2023/09/03 12:03:33;;;;;;;;;;;;;;;24.83;35.02;101170.39;110773;1258;21941;-78